Time;durP1;ratioP1;P1;durP2;ratioP2;P2;SDS_P1;SDS_P2;PMS_P1;PMS_P2;Temp;Humidity;BMP_temperature;BMP_pressure;BME280_temperature;BME280_humidity;BME280_pressure;Samples;Min_cycle;Max_cycle;Signal;HPM_P1;HPM_P2
2023/09/12 00:01:24;;;;;;;2.73;2.43;;;;;;;22.36;61.70;96351.19;10416158;28;20291;-27
2023/09/12 00:06:25;;;;;;;2.70;2.30;;;;;;;22.35;61.74;96352.06;10416169;28;20032;-26
2023/09/12 00:11:25;;;;;;;2.85;2.53;;;;;;;22.33;61.71;96343.59;10416107;28;20296;-26
2023/09/12 00:16:25;;;;;;;2.75;2.55;;;;;;;22.34;61.64;96335.09;10415158;28;20033;-26
2023/09/12 00:21:26;;;;;;;2.67;2.27;;;;;;;22.31;61.70;96330.03;10418295;28;20033;-26
2023/09/12 00:26:26;;;;;;;2.77;2.50;;;;;;;22.33;61.70;96338.47;10409681;28;20045;-26
2023/09/12 00:31:28;;;;;;;2.78;2.28;;;;;;;22.34;61.54;96340.19;10415345;28;20365;-26
2023/09/12 00:36:28;;;;;;;2.73;2.53;;;;;;;22.32;61.53;96334.25;10417615;28;20211;-26
2023/09/12 00:41:29;;;;;;;2.63;2.42;;;;;;;22.33;61.67;96328.28;10419296;28;20159;-26
2023/09/12 00:46:29;;;;;;;3.37;3.00;;;;;;;22.33;61.63;96323.19;10422824;28;20029;-27
2023/09/12 00:51:31;;;;;;;2.70;2.50;;;;;;;22.33;61.65;96338.47;10417025;28;20341;-28
2023/09/12 00:56:32;;;;;;;2.63;2.42;;;;;;;22.32;61.62;96331.72;10417459;28;20519;-26
2023/09/12 01:01:33;;;;;;;2.90;2.70;;;;;;;22.32;61.57;96331.72;10432887;28;20029;-26
2023/09/12 01:06:34;;;;;;;6.93;4.88;;;;;;;22.32;61.41;96336.81;10420935;28;20072;-26
2023/09/12 01:11:34;;;;;;;3.15;2.80;;;;;;;22.32;61.46;96336.81;10429239;28;20128;-27
2023/09/12 01:16:35;;;;;;;2.80;2.50;;;;;;;22.30;61.27;96322.44;10416910;28;20045;-26
2023/09/12 01:22:07;;;;;;;2.72;2.53;;;;;;;22.33;61.56;96327.47;10418340;28;20025;-26
2023/09/12 01:27:48;;;;;;;3.90;2.90;;;;;;;22.32;61.51;96330.88;10437312;28;20060;-26
2023/09/12 01:32:49;;;;;;;2.97;2.67;;;;;;;22.31;61.48;96334.31;10418315;28;20107;-26
2023/09/12 01:37:50;;;;;;;4.68;4.20;;;;;;;22.31;61.41;96342.78;10426885;28;20095;-27
2023/09/12 01:42:52;;;;;;;4.13;3.67;;;;;;;22.32;61.39;96336.00;10431318;28;20037;-26
2023/09/12 01:47:53;;;;;;;3.00;2.80;;;;;;;22.29;61.46;96329.25;10419015;28;20407;-27
2023/09/12 01:52:54;;;;;;;2.92;2.72;;;;;;;22.30;61.46;96327.53;10426528;28;20041;-26
2023/09/12 01:57:56;;;;;;;4.88;3.63;;;;;;;22.31;61.56;96319.84;10431751;28;20441;-27
2023/09/12 02:02:57;;;;;;;2.80;2.60;;;;;;;22.31;61.15;96330.03;10422945;28;20087;-26
2023/09/12 02:08:00;;;;;;;4.03;3.20;;;;;;;22.31;61.34;96327.47;10424066;28;20041;-26
2023/09/12 02:13:00;;;;;;;3.55;3.25;;;;;;;22.31;61.45;96329.22;10417911;28;20127;-26
2023/09/12 02:18:00;;;;;;;5.70;5.20;;;;;;;22.30;61.38;96328.38;10420077;28;20120;-26
2023/09/12 02:23:01;;;;;;;2.63;2.40;;;;;;;22.31;61.31;96335.13;10421326;28;20041;-26
2023/09/12 02:28:01;;;;;;;2.63;2.43;;;;;;;22.26;61.39;96319.09;10421217;28;20091;-26
2023/09/12 02:33:02;;;;;;;3.90;3.60;;;;;;;22.31;61.36;96330.03;10414100;28;20113;-26
2023/09/12 02:38:02;;;;;;;2.75;2.55;;;;;;;22.30;61.34;96325.00;10423204;28;20280;-26
2023/09/12 02:43:03;;;;;;;4.40;3.83;;;;;;;22.31;61.33;96324.94;10428371;28;20039;-26
2023/09/12 02:48:04;;;;;;;5.03;4.63;;;;;;;22.30;61.37;96323.25;10416511;28;20103;-26
2023/09/12 02:53:04;;;;;;;5.20;4.70;;;;;;;22.31;61.19;96324.13;10424070;28;20040;-26
2023/09/12 02:58:05;;;;;;;3.05;2.75;;;;;;;22.31;61.31;96329.22;10430673;28;20037;-26
2023/09/12 03:03:05;;;;;;;4.53;4.13;;;;;;;22.27;61.38;96315.69;10410714;28;20053;-26
2023/09/12 03:08:05;;;;;;;2.80;2.57;;;;;;;22.29;61.27;96318.19;10428811;28;20034;-26
2023/09/12 03:13:06;;;;;;;4.07;3.63;;;;;;;22.29;61.29;96316.47;10429288;28;20715;-26
2023/09/12 03:18:09;;;;;;;2.45;2.25;;;;;;;22.28;61.24;96314.81;10429165;28;20356;-26
2023/09/12 03:23:10;;;;;;;3.22;2.92;;;;;;;22.29;61.38;96308.84;10424249;28;20033;-26
2023/09/12 03:28:11;;;;;;;3.07;2.67;;;;;;;22.28;61.31;96303.75;10420442;28;20445;-27
2023/09/12 03:33:11;;;;;;;5.55;5.05;;;;;;;22.30;61.13;96307.13;10414282;28;20037;-26
2023/09/12 03:38:11;;;;;;;3.47;3.17;;;;;;;22.29;61.15;96301.19;10414825;28;20025;-26
2023/09/12 03:43:12;;;;;;;4.10;3.08;;;;;;;22.28;61.15;96303.75;10427505;28;20372;-26
2023/09/12 03:48:13;;;;;;;7.22;5.72;;;;;;;22.31;60.97;96301.97;10421199;28;20398;-26
2023/09/12 03:53:15;;;;;;;6.00;5.40;;;;;;;22.30;60.96;96291.84;10421310;28;20049;-26
2023/09/12 03:58:16;;;;;;;3.67;3.38;;;;;;;22.32;60.77;96298.56;10427729;28;20426;-26
2023/09/12 04:03:17;;;;;;;6.65;6.05;;;;;;;22.55;61.99;96295.56;10429223;28;20032;-25
2023/09/12 04:08:18;;;;;;;4.70;4.30;;;;;;;22.42;60.61;96302.63;10422336;28;20084;-26
2023/09/12 04:13:19;;;;;;;6.28;5.40;;;;;;;22.38;60.35;96290.78;10414694;28;20037;-26
2023/09/12 04:18:19;;;;;;;2.45;2.25;;;;;;;22.29;60.56;96290.97;10413242;28;20033;-26
2023/09/12 04:23:20;;;;;;;1.90;1.80;;;;;;;22.29;60.86;96292.69;10428865;28;20033;-27
2023/09/12 04:28:20;;;;;;;14.48;5.00;;;;;;;22.37;59.29;96304.41;10430771;28;20095;-26
2023/09/12 04:33:21;;;;;;;9.30;5.30;;;;;;;22.37;58.96;96294.19;10438866;28;20033;-26
2023/09/12 04:38:22;;;;;;;7.93;5.80;;;;;;;22.44;58.30;96290.69;10432220;28;20036;-25
2023/09/12 04:43:23;;;;;;;12.82;7.72;;;;;;;22.37;59.46;96294.19;10439148;28;20037;-27
2023/09/12 04:48:24;;;;;;;3.63;3.20;;;;;;;22.34;60.15;96301.09;10438233;28;20033;-26
2023/09/12 04:53:24;;;;;;;5.55;4.63;;;;;;;22.33;60.01;96307.06;10433644;28;20035;-26
2023/09/12 04:58:25;;;;;;;6.35;5.75;;;;;;;22.31;60.13;96303.72;10436760;28;20403;-26
2023/09/12 05:03:26;;;;;;;6.75;5.45;;;;;;;22.30;60.30;96313.06;10414186;28;20488;-27
2023/09/12 05:08:26;;;;;;;4.77;3.37;;;;;;;22.31;60.27;96319.84;10419795;28;20480;-26
2023/09/12 05:13:27;;;;;;;5.10;3.20;;;;;;;22.30;60.39;96323.25;10432869;28;20324;-26
2023/09/12 05:18:29;;;;;;;8.30;6.47;;;;;;;22.41;59.78;96321.34;10423860;28;20024;-26
2023/09/12 05:23:31;;;;;;;16.75;8.50;;;;;;;22.41;58.84;96323.06;10415597;28;20292;-26
2023/09/12 05:28:31;;;;;;;8.18;6.07;;;;;;;22.24;58.42;96325.09;10423754;28;20037;-26
2023/09/12 05:33:32;;;;;;;6.72;5.38;;;;;;;22.23;58.62;96329.34;10413422;28;20037;-28
2023/09/12 05:38:32;;;;;;;7.03;5.57;;;;;;;22.24;59.03;96336.13;10424566;28;20025;-26
2023/09/12 05:43:33;;;;;;;7.70;6.23;;;;;;;22.26;59.53;96347.16;10426561;28;20035;-26
2023/09/12 05:48:33;;;;;;;7.00;6.38;;;;;;;22.26;58.88;96346.31;10422226;28;20033;-26
2023/09/12 05:53:33;;;;;;;20.27;7.70;;;;;;;22.28;59.08;96350.50;10432767;28;20372;-26
2023/09/12 05:58:35;;;;;;;13.90;8.13;;;;;;;22.29;59.32;96357.28;10420174;28;20391;-26
2023/09/12 06:03:36;;;;;;;12.20;6.25;;;;;;;22.29;59.17;96347.09;10427921;28;20519;-26
2023/09/12 06:08:37;;;;;;;10.10;7.93;;;;;;;22.35;58.89;96349.53;10417313;28;20050;-26
2023/09/12 06:13:37;;;;;;;9.07;6.70;;;;;;;22.32;58.63;96347.00;10414037;28;20041;-26
2023/09/12 06:18:37;;;;;;;8.63;6.70;;;;;;;22.29;59.38;96342.00;10411929;28;20036;-26
2023/09/12 06:23:38;;;;;;;6.77;6.07;;;;;;;22.30;59.88;96341.13;10423454;28;20395;-26
2023/09/12 06:28:38;;;;;;;5.67;4.90;;;;;;;22.27;60.21;96346.28;10424193;28;20033;-26
2023/09/12 06:33:38;;;;;;;6.13;5.43;;;;;;;22.28;60.06;96355.63;10426030;28;20041;-27
2023/09/12 06:38:39;;;;;;;7.03;5.60;;;;;;;22.26;60.30;96357.38;10419358;28;20407;-26
2023/09/12 06:43:39;;;;;;;9.30;6.67;;;;;;;22.25;60.44;96358.25;10427433;28;20292;-26
2023/09/12 06:48:40;;;;;;;8.50;6.37;;;;;;;22.27;60.43;96359.03;10413800;28;20029;-26
2023/09/12 06:53:40;;;;;;;6.18;5.00;;;;;;;22.27;60.56;96364.16;10415201;28;20782;-26
2023/09/12 06:58:40;;;;;;;6.73;5.50;;;;;;;22.25;60.52;96363.34;10410428;28;20026;-26
2023/09/12 07:03:41;;;;;;;8.87;5.57;;;;;;;22.25;60.72;96365.91;10428823;28;20041;-26
2023/09/12 07:08:41;;;;;;;8.10;4.80;;;;;;;22.24;60.59;96368.47;10417035;28;20064;-26
2023/09/12 07:13:41;;;;;;;4.70;4.30;;;;;;;22.25;60.82;96367.59;10416147;28;20040;-26
2023/09/12 07:18:42;;;;;;;5.07;4.37;;;;;;;22.23;60.66;96357.41;10409960;28;20088;-26
2023/09/12 07:23:42;;;;;;;6.87;4.87;;;;;;;22.23;60.81;96351.50;10416647;28;20034;-26
2023/09/12 07:28:43;;;;;;;6.28;4.38;;;;;;;22.23;60.76;96359.97;10418110;28;20307;-26
2023/09/12 07:33:43;;;;;;;6.30;4.43;;;;;;;22.24;60.75;96369.28;10413253;28;20086;-26
2023/09/12 07:38:45;;;;;;;5.23;4.70;;;;;;;22.23;60.77;96367.59;10419345;28;20028;-26
2023/09/12 07:43:45;;;;;;;5.47;4.97;;;;;;;22.24;60.74;96359.09;10417374;28;20037;-26
2023/09/12 07:48:46;;;;;;;5.50;4.87;;;;;;;22.25;60.86;96365.03;10408579;28;20030;-26
2023/09/12 07:53:46;;;;;;;4.80;4.30;;;;;;;22.21;60.69;96361.72;10420487;28;20333;-26
2023/09/12 07:58:49;;;;;;;4.63;4.03;;;;;;;22.21;60.71;96361.72;10414426;28;20841;-27
2023/09/12 08:03:49;;;;;;;4.65;4.25;;;;;;;22.24;60.94;96369.28;10408153;28;20499;-26
2023/09/12 08:08:50;;;;;;;4.53;4.13;;;;;;;22.24;60.90;96376.94;10428352;28;20037;-26
2023/09/12 08:13:50;;;;;;;6.57;4.45;;;;;;;22.25;60.83;96381.19;10424135;28;20175;-27
2023/09/12 08:18:50;;;;;;;4.87;4.47;;;;;;;22.24;60.91;96374.38;10407884;28;20033;-26
2023/09/12 08:23:51;;;;;;;4.30;3.87;;;;;;;22.25;61.04;96386.28;10413479;28;20796;-26
2023/09/12 08:28:51;;;;;;;4.10;3.80;;;;;;;22.23;60.95;96377.81;10408550;28;20037;-28
2023/09/12 08:33:51;;;;;;;4.50;4.10;;;;;;;22.24;60.68;96369.28;10421975;28;20095;-27
2023/09/12 08:38:51;;;;;;;5.20;4.13;;;;;;;22.23;61.24;96369.34;10420271;28;20030;-26
2023/09/12 08:43:53;;;;;;;4.17;3.83;;;;;;;22.23;60.96;96367.59;10412054;28;20492;-26
2023/09/12 08:48:56;;;;;;;4.70;4.30;;;;;;;22.24;61.06;96371.84;10409727;28;20033;-26
2023/09/12 08:53:56;;;;;;;4.78;4.38;;;;;;;22.24;60.99;96371.84;10416557;28;20039;-26
2023/09/12 08:58:58;;;;;;;3.97;3.67;;;;;;;22.25;60.97;96378.66;10419180;28;20398;-26
2023/09/12 09:03:58;;;;;;;4.45;4.05;;;;;;;22.22;61.48;96368.47;10419707;28;20035;-27
2023/09/12 09:09:02;;;;;;;4.47;3.80;;;;;;;22.26;61.04;96380.31;10415495;28;20033;-26
2023/09/12 09:14:03;;;;;;;5.75;4.55;;;;;;;22.23;61.06;96380.38;10409276;28;20075;-26
2023/09/12 09:19:10;;;;;;;5.60;4.40;;;;;;;22.26;61.09;96380.31;10422436;28;20087;-28
2023/09/12 09:24:13;;;;;;;3.90;3.50;;;;;;;22.26;61.09;96382.88;10418344;28;20026;-27
2023/09/12 09:29:21;;;;;;;4.05;3.28;;;;;;;22.24;61.22;96382.03;10424872;28;20478;-26
2023/09/12 09:34:23;;;;;;;4.43;3.92;;;;;;;22.25;61.13;96378.66;10421016;28;20043;-27
2023/09/12 09:39:28;;;;;;;3.80;3.50;;;;;;;22.26;61.13;96374.38;10426626;28;20475;-26
2023/09/12 09:44:30;;;;;;;4.97;4.50;;;;;;;22.25;61.27;96381.19;10421191;28;20032;-25
2023/09/12 09:49:31;;;;;;;3.97;3.63;;;;;;;22.26;61.25;96384.56;10418903;28;20495;-26
2023/09/12 09:54:32;;;;;;;3.58;3.28;;;;;;;22.25;61.19;96382.88;10414659;28;20039;-26
2023/09/12 09:59:32;;;;;;;3.97;3.67;;;;;;;22.25;61.37;96376.09;10428049;28;20037;-27
2023/09/12 10:04:35;;;;;;;5.23;4.03;;;;;;;22.24;61.39;96384.59;10424784;28;20090;-27
2023/09/12 10:09:36;;;;;;;4.05;3.75;;;;;;;22.25;61.17;96375.25;10418231;28;20037;-26
2023/09/12 10:14:39;;;;;;;3.78;3.42;;;;;;;22.25;61.35;96371.00;10414706;28;20047;-26
2023/09/12 10:19:48;;;;;;;4.53;4.13;;;;;;;22.25;61.27;96360.78;10424156;28;20045;-26
2023/09/12 10:24:50;;;;;;;5.95;4.55;;;;;;;22.26;61.30;96365.03;10419677;28;20132;-26
2023/09/12 10:29:52;;;;;;;5.03;3.90;;;;;;;22.26;61.22;96359.91;10426514;28;20040;-26
2023/09/12 10:34:56;;;;;;;3.70;3.40;;;;;;;22.27;61.45;96353.94;10421453;28;20038;-26
2023/09/12 10:39:57;;;;;;;9.02;5.10;;;;;;;22.28;61.53;96345.41;10418352;28;20032;-26
2023/09/12 10:45:00;;;;;;;5.18;3.45;;;;;;;22.28;61.59;96350.50;10430877;28;20041;-26
2023/09/12 10:50:02;;;;;;;9.20;4.65;;;;;;;22.28;61.45;96340.31;10417403;28;20091;-26
2023/09/12 10:55:04;;;;;;;8.35;4.28;;;;;;;22.27;61.38;96338.63;10418341;28;20041;-26
2023/09/12 11:00:08;;;;;;;11.05;4.80;;;;;;;22.29;61.67;96331.78;10425494;28;20032;-26
2023/09/12 11:05:27;;;;;;;9.60;4.03;;;;;;;22.26;61.58;96326.75;10435166;28;20633;-26
2023/09/12 11:10:32;;;;;;;7.00;4.28;;;;;;;22.29;61.60;96330.94;10417795;28;20029;-26
2023/09/12 11:15:34;;;;;;;5.22;3.45;;;;;;;22.27;61.60;96325.88;10418625;28;20025;-27
2023/09/12 11:21:03;;;;;;;6.93;4.30;;;;;;;22.30;61.57;96332.63;10423838;28;20033;-26
2023/09/12 11:26:06;;;;;;;13.40;5.07;;;;;;;22.26;61.67;96328.47;10417041;28;20029;-26
2023/09/12 11:31:06;;;;;;;5.50;4.43;;;;;;;22.30;61.75;96337.75;10417273;28;20040;-26
2023/09/12 11:36:13;;;;;;;10.93;5.65;;;;;;;22.29;61.73;96330.94;10418225;28;20044;-27
2023/09/12 11:41:14;;;;;;;6.50;4.70;;;;;;;22.28;61.66;96325.00;10408765;28;20021;-26
2023/09/12 11:46:15;;;;;;;9.13;4.13;;;;;;;22.28;61.61;96322.47;10416620;28;20029;-27
2023/09/12 11:51:15;;;;;;;6.22;3.45;;;;;;;22.28;61.72;96325.00;10428082;28;20288;-25
2023/09/12 11:56:16;;;;;;;8.93;4.63;;;;;;;22.30;61.70;96323.25;10410628;28;20045;-27
2023/09/12 12:01:16;;;;;;;7.23;4.53;;;;;;;22.30;61.57;96317.34;10427239;28;20271;-26
2023/09/12 12:06:18;;;;;;;7.30;4.32;;;;;;;22.24;61.77;96308.06;10422277;28;20024;-26
2023/09/12 12:11:18;;;;;;;3.83;3.22;;;;;;;22.29;61.95;96311.38;10417933;28;20033;-27
2023/09/12 12:16:19;;;;;;;11.75;4.63;;;;;;;22.31;61.86;96319.00;10423671;28;20694;-26
2023/09/12 12:21:20;;;;;;;3.80;3.25;;;;;;;22.30;62.98;96319.88;10415344;28;20033;-27
2023/09/12 12:26:20;;;;;;;40.40;8.75;;;;;;;22.33;62.17;96323.19;10407937;28;20423;-26
2023/09/12 12:31:21;;;;;;;53.83;11.20;;;;;;;22.35;63.06;96320.59;10420725;28;20029;-26
2023/09/12 12:36:22;;;;;;;31.05;8.45;;;;;;;22.33;62.33;96318.09;10426967;28;20064;-26
2023/09/12 12:41:29;;;;;;;35.00;10.38;;;;;;;22.32;62.08;96311.31;10415644;28;20033;-26
2023/09/12 12:46:29;;;;;;;;;;;;;;;22.32;62.02;96308.75;10414711;28;20038;-26
2023/09/12 12:51:30;;;;;;;16.10;6.53;;;;;;;22.32;62.04;96303.66;10442728;28;20023;-26
2023/09/12 12:56:30;;;;;;;16.00;6.30;;;;;;;22.32;62.13;96301.09;10440669;28;20057;-26
2023/09/12 13:01:33;;;;;;;18.10;6.15;;;;;;;22.37;63.48;96298.44;10435108;28;20042;-26
2023/09/12 13:06:35;;;;;;;14.27;5.07;;;;;;;22.37;62.30;96294.19;10428289;28;20061;-27
2023/09/12 13:11:36;;;;;;;15.15;4.72;;;;;;;22.38;62.37;96275.47;10414238;28;20065;-26
2023/09/12 13:16:39;;;;;;;14.17;4.70;;;;;;;22.41;62.43;96272.88;10420708;28;20507;-26
2023/09/12 13:21:39;;;;;;;9.55;4.60;;;;;;;22.44;62.15;96264.31;10434889;28;20284;-26
2023/09/12 13:26:40;;;;;;;19.93;5.83;;;;;;;22.42;62.14;96261.81;10427865;28;20036;-26
2023/09/12 13:31:40;;;;;;;15.68;5.65;;;;;;;22.42;62.18;96256.72;10418893;28;20042;-27
2023/09/12 13:36:41;;;;;;;17.37;5.97;;;;;;;22.39;62.15;96241.44;10415974;28;20466;-26
2023/09/12 13:41:41;;;;;;;18.13;5.80;;;;;;;22.40;62.30;96242.28;10413275;28;20025;-27
2023/09/12 13:46:44;;;;;;;20.07;6.47;;;;;;;22.35;62.57;96239.84;10424954;28;20083;-26
2023/09/12 13:51:44;;;;;;;17.67;6.43;;;;;;;22.40;62.53;96242.28;10415632;28;20681;-27
2023/09/12 13:56:44;;;;;;;22.93;7.67;;;;;;;22.43;62.62;96249.88;10428648;28;20032;-26
2023/09/12 14:01:45;;;;;;;17.10;6.53;;;;;;;22.41;62.27;96249.09;10425458;28;20102;-26
2023/09/12 14:06:45;;;;;;;18.53;7.00;;;;;;;22.41;62.43;96254.19;10417309;28;20528;-26
2023/09/12 14:11:47;;;;;;;17.87;6.97;;;;;;;22.39;62.46;96256.75;10428257;28;20029;-27
2023/09/12 14:16:47;;;;;;;12.52;6.18;;;;;;;22.40;62.37;96252.50;10424807;28;20064;-26
2023/09/12 14:21:48;;;;;;;14.83;5.80;;;;;;;22.40;63.50;96248.22;10418909;28;20033;-27
2023/09/12 14:26:49;;;;;;;12.77;7.00;;;;;;;22.40;63.82;96248.22;10419914;28;20283;-27
2023/09/12 14:31:52;;;;;;;16.02;6.32;;;;;;;22.39;63.62;96255.91;10432227;28;20519;-27
2023/09/12 14:36:56;;;;;;;8.35;5.70;;;;;;;22.38;63.73;96246.56;10415820;28;20049;-26
2023/09/12 14:41:57;;;;;;;11.98;6.53;;;;;;;22.38;63.70;96238.91;10410291;28;20487;-26
2023/09/12 14:46:57;;;;;;;10.32;5.78;;;;;;;22.36;63.57;96233.88;10425193;28;20155;-26
2023/09/12 14:51:57;;;;;;;8.83;6.30;;;;;;;22.37;63.63;96239.78;10424640;28;20064;-26
2023/09/12 14:56:58;;;;;;;9.03;5.33;;;;;;;22.37;63.92;96238.09;10417199;28;20491;-26
2023/09/12 15:01:58;;;;;;;7.93;5.67;;;;;;;22.38;63.57;96231.25;10411793;28;20044;-27
2023/09/12 15:06:58;;;;;;;16.57;5.20;;;;;;;22.35;63.75;96229.63;10414236;28;20507;-26
2023/09/12 15:11:59;;;;;;;13.03;6.80;;;;;;;22.38;63.42;96227.00;10417271;28;20042;-26
2023/09/12 15:17:00;;;;;;;16.10;5.80;;;;;;;22.37;63.64;96217.69;10419354;28;20363;-26
2023/09/12 15:22:00;;;;;;;13.23;6.30;;;;;;;22.39;63.41;96223.56;10423637;28;20091;-26
2023/09/12 15:27:00;;;;;;;10.37;5.33;;;;;;;22.40;63.55;96217.59;10428199;28;20043;-27
2023/09/12 15:32:01;;;;;;;8.73;4.50;;;;;;;22.39;63.34;96215.94;10410628;28;20033;-26
2023/09/12 15:37:10;;;;;;;14.07;5.10;;;;;;;22.38;63.56;96229.56;10422109;28;20303;-27
2023/09/12 15:42:11;;;;;;;7.40;4.38;;;;;;;22.39;63.34;96223.56;10415746;28;20369;-25
2023/09/12 15:47:11;;;;;;;8.07;5.15;;;;;;;22.40;63.28;96232.09;10427480;28;20462;-26
2023/09/12 15:52:11;;;;;;;7.97;4.40;;;;;;;22.40;63.83;96232.91;10419812;28;20037;-27
2023/09/12 15:57:13;;;;;;;9.27;4.77;;;;;;;22.45;63.18;96235.38;10408499;28;20037;-26
2023/09/12 16:02:14;;;;;;;5.47;4.40;;;;;;;22.46;63.03;96248.09;10401980;28;20346;-26
2023/09/12 16:07:14;;;;;;;6.78;4.00;;;;;;;22.47;62.90;96249.78;10404036;28;20487;-26
2023/09/12 16:12:15;;;;;;;9.17;4.93;;;;;;;22.49;62.96;96247.22;10405474;28;20044;-27
2023/09/12 16:17:15;;;;;;;6.67;4.03;;;;;;;22.54;62.74;96251.31;10411930;28;20057;-26
2023/09/12 16:22:15;;;;;;;6.60;4.60;;;;;;;22.50;62.64;96252.25;10408393;28;20026;-26
2023/09/12 16:27:18;;;;;;;5.20;4.40;;;;;;;22.56;62.58;96264.88;10424252;28;20290;-27
2023/09/12 16:32:18;;;;;;;8.68;4.68;;;;;;;22.56;62.46;96269.97;10414869;28;20530;-27
2023/09/12 16:37:19;;;;;;;6.47;4.20;;;;;;;22.57;62.56;96270.84;10415860;28;20322;-26
2023/09/12 16:42:19;;;;;;;6.47;4.00;;;;;;;22.56;62.53;96275.09;10415514;28;20091;-27
2023/09/12 16:47:19;;;;;;;6.70;4.27;;;;;;;22.57;62.75;96286.16;10415879;28;20025;-26
2023/09/12 16:52:20;;;;;;;6.07;4.03;;;;;;;22.55;62.63;96283.63;10415446;28;20108;-27
2023/09/12 16:57:20;;;;;;;5.77;4.23;;;;;;;22.55;62.74;96282.78;10422127;28;20044;-26
2023/09/12 17:02:21;;;;;;;6.80;5.50;;;;;;;22.55;62.73;96282.78;10419979;28;20284;-26
2023/09/12 17:07:21;;;;;;;8.53;6.00;;;;;;;22.55;62.82;96268.31;10414453;28;20848;-25
2023/09/12 17:12:21;;;;;;;6.57;4.50;;;;;;;22.54;62.90;96261.53;10414307;28;20341;-27
2023/09/12 17:17:22;;;;;;;11.67;7.03;;;;;;;22.56;63.09;96259.78;10414055;28;20399;-26
2023/09/12 17:22:22;;;;;;;7.77;4.83;;;;;;;22.55;63.02;96260.66;10413825;28;20116;-26
2023/09/12 17:27:23;;;;;;;8.30;4.63;;;;;;;22.55;62.99;96267.47;10414377;28;20060;-26
2023/09/12 17:32:23;;;;;;;10.13;5.43;;;;;;;22.56;62.89;96289.56;10413670;28;20037;-26
2023/09/12 17:37:24;;;;;;;6.85;4.80;;;;;;;22.57;62.74;96292.06;10412911;28;20037;-27
2023/09/12 17:42:25;;;;;;;6.13;5.03;;;;;;;22.59;62.84;96303.09;10413121;28;20029;-26
2023/09/12 17:47:25;;;;;;;8.38;4.03;;;;;;;22.60;62.68;96303.91;10413273;28;20296;-26
2023/09/12 17:52:26;;;;;;;4.40;3.97;;;;;;;22.62;62.58;96305.56;10414075;28;20029;-26
2023/09/12 17:57:26;;;;;;;9.10;5.17;;;;;;;22.64;63.40;96319.13;10417172;28;20063;-27
2023/09/12 18:02:27;;;;;;;5.60;4.43;;;;;;;22.57;62.82;96326.97;10430174;28;20053;-27
2023/09/12 18:07:28;;;;;;;7.27;4.20;;;;;;;22.59;62.85;96322.66;10427550;28;20033;-25
2023/09/12 18:12:29;;;;;;;7.43;4.97;;;;;;;22.58;62.92;96329.47;10430715;28;20573;-26
2023/09/12 18:17:29;;;;;;;5.60;4.32;;;;;;;22.57;62.76;96332.91;10426597;28;20120;-26
2023/09/12 18:22:30;;;;;;;12.97;5.57;;;;;;;22.59;63.60;96341.38;10414392;28;20083;-26
2023/09/12 18:27:30;;;;;;;6.22;4.80;;;;;;;22.56;63.09;96341.44;10408185;28;20037;-26
2023/09/12 18:32:30;;;;;;;6.07;4.73;;;;;;;22.58;63.24;96359.25;10407443;28;20092;-27
2023/09/12 18:37:31;;;;;;;6.80;5.00;;;;;;;22.57;63.22;96366.06;10408861;28;20073;-26
2023/09/12 18:42:32;;;;;;;5.07;4.57;;;;;;;22.57;63.46;96373.72;10407156;28;20045;-27
2023/09/12 18:47:32;;;;;;;7.23;4.77;;;;;;;22.57;62.86;96372.91;10411511;28;20042;-27
2023/09/12 18:52:32;;;;;;;6.83;5.77;;;;;;;22.57;63.47;96368.63;10408548;28;20491;-26
2023/09/12 18:57:33;;;;;;;7.67;6.00;;;;;;;22.57;63.64;96373.72;10414274;28;20415;-27
2023/09/12 19:02:33;;;;;;;9.53;6.83;;;;;;;22.58;63.84;96385.59;10410147;28;20041;-26
2023/09/12 19:07:34;;;;;;;8.10;6.77;;;;;;;22.59;63.60;96382.19;10407686;28;20456;-26
2023/09/12 19:12:36;;;;;;;7.97;4.82;;;;;;;22.57;63.69;96388.22;10405415;28;20060;-26
2023/09/12 19:17:36;;;;;;;6.93;4.75;;;;;;;22.57;63.55;96398.41;10406285;28;20033;-26
2023/09/12 19:22:37;;;;;;;6.37;5.07;;;;;;;22.56;63.45;96402.66;10404896;28;20510;-26
2023/09/12 19:27:40;;;;;;;7.80;5.80;;;;;;;22.56;63.71;96399.28;10414033;28;20504;-27
2023/09/12 19:32:40;;;;;;;5.45;4.70;;;;;;;22.55;63.55;96403.53;10404838;28;20037;-26
2023/09/12 19:37:42;;;;;;;6.60;5.10;;;;;;;22.55;63.62;96415.47;10404755;28;20033;-26
2023/09/12 19:42:42;;;;;;;7.13;4.60;;;;;;;22.55;63.54;96418.03;10404798;28;20338;-26
2023/09/12 19:47:43;;;;;;;5.18;4.15;;;;;;;22.54;63.55;96429.06;10404956;28;20043;-25
2023/09/12 19:52:43;;;;;;;6.57;5.25;;;;;;;22.54;63.79;96432.47;10415787;28;20037;-26
2023/09/12 19:57:46;;;;;;;8.07;6.20;;;;;;;22.55;63.56;96441.81;10419838;28;20033;-27
2023/09/12 20:02:48;;;;;;;5.75;4.93;;;;;;;22.54;63.42;96447.78;10406067;28;20026;-26
2023/09/12 20:07:49;;;;;;;5.32;4.03;;;;;;;22.55;63.31;96452.03;10409658;28;20120;-26
2023/09/12 20:12:51;;;;;;;4.40;3.80;;;;;;;22.54;62.76;96455.44;10419201;28;20117;-26
2023/09/12 20:17:56;;;;;;;4.32;3.92;;;;;;;22.54;62.98;96458.00;10421453;28;20491;-26
2023/09/12 20:22:57;;;;;;;3.47;3.17;;;;;;;22.53;63.02;96451.22;10419813;28;20136;-26
2023/09/12 20:27:57;;;;;;;5.20;3.60;;;;;;;22.51;62.93;96450.41;10423820;28;20037;-26
2023/09/12 20:33:02;;;;;;;5.85;3.95;;;;;;;22.53;62.87;96463.13;10424165;28;20035;-26
2023/09/12 20:38:04;;;;;;;9.10;3.60;;;;;;;22.51;62.84;96455.53;10427862;28;20033;-26
2023/09/12 20:43:05;;;;;;;5.47;4.72;;;;;;;22.52;62.89;96469.94;10418092;28;20458;-26
2023/09/12 20:48:05;;;;;;;4.65;3.92;;;;;;;22.52;62.73;96477.59;10427940;28;20044;-26
2023/09/12 20:53:07;;;;;;;7.05;4.22;;;;;;;22.51;62.77;96486.13;10413878;28;20025;-26
2023/09/12 20:58:08;;;;;;;5.22;3.28;;;;;;;22.50;63.01;96484.44;10410393;28;20041;-26
2023/09/12 21:03:08;;;;;;;6.18;4.07;;;;;;;22.51;62.72;96491.25;10407250;28;20513;-27
2023/09/12 21:08:10;;;;;;;9.43;5.27;;;;;;;22.50;62.73;96499.72;10407403;28;20037;-26
2023/09/12 21:13:14;;;;;;;6.60;5.45;;;;;;;22.52;62.68;96497.16;10414752;28;20029;-27
2023/09/12 21:18:15;;;;;;;4.07;3.47;;;;;;;22.52;62.08;96502.28;10414950;28;20530;-26
2023/09/12 21:23:15;;;;;;;6.20;3.70;;;;;;;22.51;62.62;96504.00;10414174;28;20041;-26
2023/09/12 21:28:16;;;;;;;3.83;3.40;;;;;;;22.50;62.73;96507.38;10414677;28;20840;-26
2023/09/12 21:33:17;;;;;;;4.82;3.42;;;;;;;22.52;62.44;96502.28;10414058;28;20330;-26
2023/09/12 21:38:18;;;;;;;4.47;3.50;;;;;;;22.45;62.46;96491.34;10413906;28;20507;-26
2023/09/12 21:43:18;;;;;;;7.70;4.03;;;;;;;22.50;62.54;96499.72;10413707;28;20136;-26
2023/09/12 21:48:19;;;;;;;5.83;3.90;;;;;;;22.50;62.52;96489.53;10417587;28;20038;-26
2023/09/12 21:53:20;;;;;;;3.63;3.30;;;;;;;22.49;62.34;96498.06;10415916;28;20111;-26
2023/09/12 21:58:20;;;;;;;3.57;3.27;;;;;;;22.50;62.41;96527.81;10412663;28;20104;-27
2023/09/12 22:03:22;;;;;;;4.87;3.13;;;;;;;22.50;62.38;96549.94;10409086;28;20291;-26
2023/09/12 22:08:23;;;;;;;5.53;3.97;;;;;;;22.49;62.13;96569.50;10410208;28;20092;-26
2023/09/12 22:13:24;;;;;;;5.57;4.07;;;;;;;22.51;62.43;96597.53;10421502;28;20025;-26
2023/09/12 22:18:25;;;;;;;3.30;3.00;;;;;;;22.50;62.40;96614.56;10412796;28;20260;-26
2023/09/12 22:23:25;;;;;;;3.23;2.87;;;;;;;22.50;62.41;96617.09;10411829;28;20029;-27
2023/09/12 22:28:26;;;;;;;5.60;3.77;;;;;;;22.50;62.45;96621.38;10414418;28;20498;-26
2023/09/12 22:33:26;;;;;;;3.28;2.97;;;;;;;22.49;62.30;96651.16;10411689;28;20044;-26
2023/09/12 22:38:26;;;;;;;3.17;2.87;;;;;;;22.48;62.14;96629.06;10411818;28;20041;-26
2023/09/12 22:43:27;;;;;;;3.70;2.77;;;;;;;22.49;62.20;96630.72;10414219;28;20768;-26
2023/09/12 22:48:27;;;;;;;3.03;2.80;;;;;;;22.48;62.18;96623.13;10411537;28;20033;-26
2023/09/12 22:53:27;;;;;;;2.77;2.57;;;;;;;22.48;62.18;96616.28;10414422;28;20462;-26
2023/09/12 22:58:28;;;;;;;3.57;3.20;;;;;;;22.48;62.24;96618.84;10413194;28;20029;-26
2023/09/12 23:03:29;;;;;;;3.25;2.90;;;;;;;22.48;62.22;96613.75;10410446;28;20029;-26
2023/09/12 23:08:29;;;;;;;2.80;2.60;;;;;;;22.47;62.02;96609.50;10410722;28;20049;-26
2023/09/12 23:13:30;;;;;;;2.70;2.50;;;;;;;22.47;62.02;96599.31;10411227;28;20037;-26
2023/09/12 23:18:30;;;;;;;2.53;2.27;;;;;;;22.46;62.06;96594.22;10410538;28;20037;-26